sensor_id;sensor_type;location;lat;lon;timestamp;pressure;altitude;pressure_sealevel;temperature;humidity
28935;BME280;16044;52.726;-2.108;2024-02-15T00:01:16;99861.56;;;11.50;100.00
28935;BME280;16044;52.726;-2.108;2024-02-15T00:03:47;99853.03;;;11.54;100.00
28935;BME280;16044;52.726;-2.108;2024-02-15T00:06:19;99848.63;;;11.52;100.00
28935;BME280;16044;52.726;-2.108;2024-02-15T00:08:53;99839.84;;;11.50;100.00
28935;BME280;16044;52.726;-2.108;2024-02-15T00:11:23;99841.53;;;11.51;100.00
28935;BME280;16044;52.726;-2.108;2024-02-15T00:13:54;99845.72;;;11.54;100.00
28935;BME280;16044;52.726;-2.108;2024-02-15T00:16:24;99839.47;;;11.54;100.00
28935;BME280;16044;52.726;-2.108;2024-02-15T00:18:52;99841.13;;;11.55;100.00
28935;BME280;16044;52.726;-2.108;2024-02-15T00:21:23;99849.25;;;11.55;100.00
28935;BME280;16044;52.726;-2.108;2024-02-15T00:23:56;99857.41;;;11.55;100.00
28935;BME280;16044;52.726;-2.108;2024-02-15T00:26:27;99844.47;;;11.57;100.00
28935;BME280;16044;52.726;-2.108;2024-02-15T00:28:59;99853.28;;;11.59;100.00
28935;BME280;16044;52.726;-2.108;2024-02-15T00:31:29;99857.00;;;11.58;100.00
28935;BME280;16044;52.726;-2.108;2024-02-15T00:34:00;99853.66;;;11.56;100.00
28935;BME280;16044;52.726;-2.108;2024-02-15T00:36:31;99861.16;;;11.54;100.00
28935;BME280;16044;52.726;-2.108;2024-02-15T00:39:04;99852.38;;;11.51;100.00
28935;BME280;16044;52.726;-2.108;2024-02-15T00:41:35;99859.47;;;11.52;100.00
28935;BME280;16044;52.726;-2.108;2024-02-15T00:44:09;99857.22;;;11.56;100.00
28935;BME280;16044;52.726;-2.108;2024-02-15T00:46:40;99852.84;;;11.55;100.00
28935;BME280;16044;52.726;-2.108;2024-02-15T00:49:11;99852.22;;;11.60;100.00
28935;BME280;16044;52.726;-2.108;2024-02-15T00:51:41;99847.84;;;11.59;100.00
28935;BME280;16044;52.726;-2.108;2024-02-15T00:54:15;99849.25;;;11.55;100.00
28935;BME280;16044;52.726;-2.108;2024-02-15T00:56:45;99857.84;;;11.58;100.00
28935;BME280;16044;52.726;-2.108;2024-02-15T00:59:16;99852.41;;;11.58;100.00
28935;BME280;16044;52.726;-2.108;2024-02-15T01:01:46;99858.28;;;11.62;100.00
28935;BME280;16044;52.726;-2.108;2024-02-15T01:04:17;99865.78;;;11.60;100.00
28935;BME280;16044;52.726;-2.108;2024-02-15T01:06:47;99862.00;;;11.54;100.00
28935;BME280;16044;52.726;-2.108;2024-02-15T01:09:21;99865.78;;;11.60;100.00
28935;BME280;16044;52.726;-2.108;2024-02-15T01:11:51;99860.56;;;11.58;100.00
28935;BME280;16044;52.726;-2.108;2024-02-15T01:14:22;99856.41;;;11.62;100.00
28935;BME280;16044;52.726;-2.108;2024-02-15T01:16:57;99859.97;;;11.63;100.00
28935;BME280;16044;52.726;-2.108;2024-02-15T01:19:27;99852.22;;;11.60;100.00
28935;BME280;16044;52.726;-2.108;2024-02-15T01:21:59;99852.38;;;11.51;100.00
28935;BME280;16044;52.726;-2.108;2024-02-15T01:24:32;99842.41;;;11.59;100.00
28935;BME280;16044;52.726;-2.108;2024-02-15T01:27:03;99845.97;;;11.59;100.00
28935;BME280;16044;52.726;-2.108;2024-02-15T01:29:35;99864.53;;;11.62;100.00
28935;BME280;16044;52.726;-2.108;2024-02-15T01:32:05;99846.19;;;11.64;100.00
28935;BME280;16044;52.726;-2.108;2024-02-15T01:34:36;99850.19;;;11.68;100.00
28935;BME280;16044;52.726;-2.108;2024-02-15T01:37:06;99850.78;;;11.64;100.00
28935;BME280;16044;52.726;-2.108;2024-02-15T01:39:40;99842.84;;;11.62;100.00
28935;BME280;16044;52.726;-2.108;2024-02-15T01:42:10;99851.41;;;11.66;100.00
28935;BME280;16044;52.726;-2.108;2024-02-15T01:44:41;99848.31;;;11.69;100.00
28935;BME280;16044;52.726;-2.108;2024-02-15T01:47:16;99854.78;;;11.68;100.00
28935;BME280;16044;52.726;-2.108;2024-02-15T01:49:48;99852.47;;;11.65;100.00
28935;BME280;16044;52.726;-2.108;2024-02-15T01:52:19;99860.00;;;11.69;100.00
28935;BME280;16044;52.726;-2.108;2024-02-15T01:54:54;99863.97;;;11.67;100.00
28935;BME280;16044;52.726;-2.108;2024-02-15T01:57:24;99876.28;;;11.69;100.00
28935;BME280;16044;52.726;-2.108;2024-02-15T01:59:54;99862.09;;;11.67;100.00
28935;BME280;16044;52.726;-2.108;2024-02-15T02:02:25;99862.72;;;11.69;100.00
28935;BME280;16044;52.726;-2.108;2024-02-15T02:04:58;99847.25;;;11.70;100.00
28935;BME280;16044;52.726;-2.108;2024-02-15T02:07:29;99830.97;;;11.70;100.00
28935;BME280;16044;52.726;-2.108;2024-02-15T02:10:03;99811.13;;;11.69;100.00
28935;BME280;16044;52.726;-2.108;2024-02-15T02:12:35;99835.38;;;11.71;100.00
28935;BME280;16044;52.726;-2.108;2024-02-15T02:15:07;99836.63;;;11.68;100.00
28935;BME280;16044;52.726;-2.108;2024-02-15T02:17:39;99843.53;;;11.71;100.00
28935;BME280;16044;52.726;-2.108;2024-02-15T02:20:10;99847.25;;;11.70;100.00
28935;BME280;16044;52.726;-2.108;2024-02-15T02:22:41;99846.25;;;11.71;100.00
28935;BME280;16044;52.726;-2.108;2024-02-15T02:25:16;99841.84;;;11.70;100.00
28935;BME280;16044;52.726;-2.108;2024-02-15T02:27:47;99839.13;;;11.70;100.00
28935;BME280;16044;52.726;-2.108;2024-02-15T02:30:17;99833.28;;;11.73;100.00
28935;BME280;16044;52.726;-2.108;2024-02-15T02:32:49;99840.81;;;11.71;100.00
28935;BME280;16044;52.726;-2.108;2024-02-15T02:35:19;99822.19;;;11.68;100.00
28935;BME280;16044;52.726;-2.108;2024-02-15T02:37:51;99815.31;;;11.65;100.00
28935;BME280;16044;52.726;-2.108;2024-02-15T02:40:24;99812.38;;;11.67;100.00
28935;BME280;16044;52.726;-2.108;2024-02-15T02:42:56;99807.34;;;11.64;100.00
28935;BME280;16044;52.726;-2.108;2024-02-15T02:45:27;99828.03;;;11.65;100.00
28935;BME280;16044;52.726;-2.108;2024-02-15T02:47:57;99807.34;;;11.64;100.00
28935;BME280;16044;52.726;-2.108;2024-02-15T02:50:28;99812.34;;;11.60;100.00
28935;BME280;16044;52.726;-2.108;2024-02-15T02:52:59;99800.91;;;11.65;100.00
28935;BME280;16044;52.726;-2.108;2024-02-15T02:55:32;99796.50;;;11.64;100.00
28935;BME280;16044;52.726;-2.108;2024-02-15T02:58:03;99802.97;;;11.63;100.00
28935;BME280;16044;52.726;-2.108;2024-02-15T03:00:34;99798.56;;;11.62;100.00
28935;BME280;16044;52.726;-2.108;2024-02-15T03:03:06;99799.22;;;11.64;100.00
28935;BME280;16044;52.726;-2.108;2024-02-15T03:05:37;99796.50;;;11.64;100.00
28935;BME280;16044;52.726;-2.108;2024-02-15T03:08:08;99805.69;;;11.63;100.00
28935;BME280;16044;52.726;-2.108;2024-02-15T03:10:42;99801.91;;;11.64;100.00
28935;BME280;16044;52.726;-2.108;2024-02-15T03:13:12;99800.03;;;11.58;100.00
28935;BME280;16044;52.726;-2.108;2024-02-15T03:15:44;99791.69;;;11.59;100.00
28935;BME280;16044;52.726;-2.108;2024-02-15T03:18:15;99777.88;;;11.54;100.00
28935;BME280;16044;52.726;-2.108;2024-02-15T03:20:45;99786.44;;;11.58;100.00
28935;BME280;16044;52.726;-2.108;2024-02-15T03:23:16;99779.31;;;11.57;100.00
28935;BME280;16044;52.726;-2.108;2024-02-15T03:25:49;99776.22;;;11.60;100.00
28935;BME280;16044;52.726;-2.108;2024-02-15T03:28:20;99779.31;;;11.57;100.00
28935;BME280;16044;52.726;-2.108;2024-02-15T03:30:51;99766.41;;;11.59;100.00
28935;BME280;16044;52.726;-2.108;2024-02-15T03:33:22;99767.44;;;11.58;100.00
28935;BME280;16044;52.726;-2.108;2024-02-15T03:35:53;99758.66;;;11.56;100.00
28935;BME280;16044;52.726;-2.108;2024-02-15T03:38:27;99762.22;;;11.56;100.00
28935;BME280;16044;52.726;-2.108;2024-02-15T03:41:01;99768.88;;;11.54;100.00
28935;BME280;16044;52.726;-2.108;2024-02-15T03:43:32;99770.56;;;11.55;100.00
28935;BME280;16044;52.726;-2.108;2024-02-15T03:46:03;99767.19;;;11.52;100.00
28935;BME280;16044;52.726;-2.108;2024-02-15T03:48:34;99769.91;;;11.52;100.00
28935;BME280;16044;52.726;-2.108;2024-02-15T03:51:04;99763.47;;;11.54;100.00
28935;BME280;16044;52.726;-2.108;2024-02-15T03:53:36;99767.19;;;11.52;100.00
28935;BME280;16044;52.726;-2.108;2024-02-15T03:56:09;99759.25;;;11.51;100.00
28935;BME280;16044;52.726;-2.108;2024-02-15T03:58:40;99761.34;;;11.49;100.00
28935;BME280;16044;52.726;-2.108;2024-02-15T04:01:10;99763.59;;;11.45;100.00
28935;BME280;16044;52.726;-2.108;2024-02-15T04:03:42;99764.47;;;11.46;100.00
28935;BME280;16044;52.726;-2.108;2024-02-15T04:06:15;99768.41;;;11.43;100.00
28935;BME280;16044;52.726;-2.108;2024-02-15T04:08:45;99765.69;;;11.43;100.00
28935;BME280;16044;52.726;-2.108;2024-02-15T04:11:19;99759.22;;;11.44;100.00
28935;BME280;16044;52.726;-2.108;2024-02-15T04:13:49;99762.97;;;11.43;100.00
28935;BME280;16044;52.726;-2.108;2024-02-15T04:16:20;99754.63;;;11.45;100.00
28935;BME280;16044;52.726;-2.108;2024-02-15T04:18:52;99759.63;;;11.41;100.00
28935;BME280;16044;52.726;-2.108;2024-02-15T04:21:24;99757.97;;;11.47;100.00
28935;BME280;16044;52.726;-2.108;2024-02-15T04:23:54;99753.63;;;11.46;100.00
28935;BME280;16044;52.726;-2.108;2024-02-15T04:26:28;99748.63;;;11.49;100.00
28935;BME280;16044;52.726;-2.108;2024-02-15T04:28:59;99746.31;;;11.46;100.00
28935;BME280;16044;52.726;-2.108;2024-02-15T04:31:35;99748.00;;;11.54;100.00
28935;BME280;16044;52.726;-2.108;2024-02-15T04:34:06;99747.56;;;11.50;100.00
28935;BME280;16044;52.726;-2.108;2024-02-15T04:36:39;99736.31;;;11.54;100.00
28935;BME280;16044;52.726;-2.108;2024-02-15T04:39:09;99734.03;;;11.57;100.00
28935;BME280;16044;52.726;-2.108;2024-02-15T04:41:53;99729.84;;;11.55;100.00
28935;BME280;16044;52.726;-2.108;2024-02-15T04:44:24;99737.78;;;11.56;100.00
28935;BME280;16044;52.726;-2.108;2024-02-15T04:46:55;99735.50;;;11.60;100.00
28935;BME280;16044;52.726;-2.108;2024-02-15T04:49:26;99733.44;;;11.62;100.00
28935;BME280;16044;52.726;-2.108;2024-02-15T04:51:56;99731.78;;;11.61;100.00
28935;BME280;16044;52.726;-2.108;2024-02-15T04:54:29;99725.91;;;11.57;100.00
28935;BME280;16044;52.726;-2.108;2024-02-15T04:57:02;99711.72;;;11.62;100.00
28935;BME280;16044;52.726;-2.108;2024-02-15T04:59:35;99719.25;;;11.66;100.00
28935;BME280;16044;52.726;-2.108;2024-02-15T05:02:06;99716.75;;;11.65;100.00
28935;BME280;16044;52.726;-2.108;2024-02-15T05:04:38;99700.03;;;11.68;100.00
28935;BME280;16044;52.726;-2.108;2024-02-15T05:07:10;99699.19;;;11.67;100.00
28935;BME280;16044;52.726;-2.108;2024-02-15T05:09:44;99698.38;;;11.67;100.00
28935;BME280;16044;52.726;-2.108;2024-02-15T05:12:22;99696.28;;;11.69;100.00
28935;BME280;16044;52.726;-2.108;2024-02-15T05:14:53;99689.59;;;11.65;100.00
28935;BME280;16044;52.726;-2.108;2024-02-15T05:17:23;99688.16;;;11.69;100.00
28935;BME280;16044;52.726;-2.108;2024-02-15T05:19:55;99698.38;;;11.67;100.00
28935;BME280;16044;52.726;-2.108;2024-02-15T05:22:26;99701.28;;;11.65;100.00
28935;BME280;16044;52.726;-2.108;2024-02-15T05:24:57;99690.03;;;11.68;100.00
28935;BME280;16044;52.726;-2.108;2024-02-15T05:27:30;99695.22;;;11.70;100.00
28935;BME280;16044;52.726;-2.108;2024-02-15T05:30:00;99685.44;;;11.76;100.00
28935;BME280;16044;52.726;-2.108;2024-02-15T05:32:34;99682.94;;;11.74;100.00
28935;BME280;16044;52.726;-2.108;2024-02-15T05:35:09;99676.91;;;11.72;100.00
28935;BME280;16044;52.726;-2.108;2024-02-15T05:37:40;99676.66;;;11.74;100.00
28935;BME280;16044;52.726;-2.108;2024-02-15T05:40:11;99667.94;;;11.78;100.00
28935;BME280;16044;52.726;-2.108;2024-02-15T05:42:45;99665.41;;;11.77;100.00
28935;BME280;16044;52.726;-2.108;2024-02-15T05:45:30;99666.22;;;11.77;100.00
28935;BME280;16044;52.726;-2.108;2024-02-15T05:48:07;99657.25;;;11.77;100.00
28935;BME280;16044;52.726;-2.108;2024-02-15T05:50:40;99659.97;;;11.77;100.00
28935;BME280;16044;52.726;-2.108;2024-02-15T05:53:10;99656.63;;;11.75;100.00
28935;BME280;16044;52.726;-2.108;2024-02-15T05:55:40;99658.53;;;11.74;100.00
28935;BME280;16044;52.726;-2.108;2024-02-15T05:58:14;99659.34;;;11.75;100.00
28935;BME280;16044;52.726;-2.108;2024-02-15T06:00:44;99664.97;;;11.73;100.00
28935;BME280;16044;52.726;-2.108;2024-02-15T06:03:17;99663.31;;;11.72;100.00
28935;BME280;16044;52.726;-2.108;2024-02-15T06:05:49;99667.88;;;11.71;100.00
28935;BME280;16044;52.726;-2.108;2024-02-15T06:08:25;99667.69;;;11.73;100.00
28935;BME280;16044;52.726;-2.108;2024-02-15T06:10:57;99670.84;;;11.77;100.00
28935;BME280;16044;52.726;-2.108;2024-02-15T06:13:31;99667.50;;;11.75;100.00
28935;BME280;16044;52.726;-2.108;2024-02-15T06:16:02;99675.44;;;11.76;100.00
28935;BME280;16044;52.726;-2.108;2024-02-15T06:18:36;99673.75;;;11.75;100.00
28935;BME280;16044;52.726;-2.108;2024-02-15T06:21:07;99672.09;;;11.74;100.00
28935;BME280;16044;52.726;-2.108;2024-02-15T06:23:37;99668.13;;;11.77;100.00
28935;BME280;16044;52.726;-2.108;2024-02-15T06:26:07;99661.22;;;11.74;100.00
28935;BME280;16044;52.726;-2.108;2024-02-15T06:28:41;99670.84;;;11.77;100.00
28935;BME280;16044;52.726;-2.108;2024-02-15T06:31:23;99668.75;;;11.79;100.00
28935;BME280;16044;52.726;-2.108;2024-02-15T06:34:06;99663.53;;;11.77;100.00
28935;BME280;16044;52.726;-2.108;2024-02-15T06:36:50;99668.56;;;11.80;100.00
28935;BME280;16044;52.726;-2.108;2024-02-15T06:39:34;99658.72;;;11.79;100.00
28935;BME280;16044;52.726;-2.108;2024-02-15T06:42:09;99657.47;;;11.75;100.00
28935;BME280;16044;52.726;-2.108;2024-02-15T06:44:46;99656.88;;;11.80;100.00
28935;BME280;16044;52.726;-2.108;2024-02-15T06:47:17;99649.16;;;11.83;100.00
28935;BME280;16044;52.726;-2.108;2024-02-15T06:49:48;99644.75;;;11.82;100.00
28935;BME280;16044;52.726;-2.108;2024-02-15T06:52:21;99661.66;;;11.84;100.00
28935;BME280;16044;52.726;-2.108;2024-02-15T06:54:51;99655.41;;;11.84;100.00
28935;BME280;16044;52.726;-2.108;2024-02-15T06:57:23;99657.91;;;11.85;100.00
28935;BME280;16044;52.726;-2.108;2024-02-15T06:59:56;99659.56;;;11.86;100.00
28935;BME280;16044;52.726;-2.108;2024-02-15T07:02:26;99660.03;;;11.90;100.00
28935;BME280;16044;52.726;-2.108;2024-02-15T07:04:56;99659.56;;;11.86;100.00
28935;BME280;16044;52.726;-2.108;2024-02-15T07:07:27;99659.22;;;11.89;100.00
28935;BME280;16044;52.726;-2.108;2024-02-15T07:09:58;99660.47;;;11.94;100.00
28935;BME280;16044;52.726;-2.108;2024-02-15T07:12:30;99657.97;;;11.99;100.00
28935;BME280;16044;52.726;-2.108;2024-02-15T07:15:04;99657.13;;;11.98;100.00
28935;BME280;16044;52.726;-2.108;2024-02-15T07:17:36;99660.25;;;12.02;100.00
28935;BME280;16044;52.726;-2.108;2024-02-15T07:20:10;99657.53;;;12.02;100.00
28935;BME280;16044;52.726;-2.108;2024-02-15T07:22:44;99655.88;;;12.01;100.00
28935;BME280;16044;52.726;-2.108;2024-02-15T07:25:14;99656.09;;;12.06;100.00
28935;BME280;16044;52.726;-2.108;2024-02-15T07:27:45;99661.94;;;12.03;100.00
28935;BME280;16044;52.726;-2.108;2024-02-15T07:30:18;99663.84;;;12.02;100.00
28935;BME280;16044;52.726;-2.108;2024-02-15T07:32:52;99669.25;;;11.96;100.00
28935;BME280;16044;52.726;-2.108;2024-02-15T07:35:23;99658.59;;;12.01;100.00
28935;BME280;16044;52.726;-2.108;2024-02-15T07:37:57;99656.91;;;12.00;100.00
28935;BME280;16044;52.726;-2.108;2024-02-15T07:40:28;99657.97;;;11.99;100.00
28935;BME280;16044;52.726;-2.108;2024-02-15T07:42:59;99656.72;;;12.01;100.00
28935;BME280;16044;52.726;-2.108;2024-02-15T07:45:33;99656.53;;;12.03;100.00
28935;BME280;16044;52.726;-2.108;2024-02-15T07:48:04;99654.03;;;12.08;100.00
28935;BME280;16044;52.726;-2.108;2024-02-15T07:50:35;99649.22;;;12.10;100.00
28935;BME280;16044;52.726;-2.108;2024-02-15T07:53:07;99650.88;;;12.11;100.00
28935;BME280;16044;52.726;-2.108;2024-02-15T07:55:39;99659.25;;;12.16;100.00
28935;BME280;16044;52.726;-2.108;2024-02-15T07:58:11;99664.47;;;12.18;100.00
28935;BME280;16044;52.726;-2.108;2024-02-15T08:00:44;99660.50;;;12.20;100.00
28935;BME280;16044;52.726;-2.108;2024-02-15T08:03:15;99661.75;;;12.24;100.00
28935;BME280;16044;52.726;-2.108;2024-02-15T08:05:46;99653.00;;;12.29;100.00
28935;BME280;16044;52.726;-2.108;2024-02-15T08:08:17;99643.78;;;12.30;100.00
28935;BME280;16044;52.726;-2.108;2024-02-15T08:10:48;99647.75;;;12.34;100.00
28935;BME280;16044;52.726;-2.108;2024-02-15T08:13:19;99649.63;;;12.34;100.00
28935;BME280;16044;52.726;-2.108;2024-02-15T08:15:57;99653.00;;;12.42;100.00
28935;BME280;16044;52.726;-2.108;2024-02-15T08:18:28;99649.22;;;12.43;100.00
28935;BME280;16044;52.726;-2.108;2024-02-15T08:20:58;99652.34;;;12.47;100.00
28935;BME280;16044;52.726;-2.108;2024-02-15T08:23:29;99649.84;;;12.52;100.00
28935;BME280;16044;52.726;-2.108;2024-02-15T08:25:59;99657.59;;;12.55;100.00
28935;BME280;16044;52.726;-2.108;2024-02-15T08:28:30;99649.81;;;12.59;100.00
28935;BME280;16044;52.726;-2.108;2024-02-15T08:31:03;99645.88;;;12.55;100.00
28935;BME280;16044;52.726;-2.108;2024-02-15T08:33:35;99656.31;;;12.58;100.00
28935;BME280;16044;52.726;-2.108;2024-02-15T08:36:06;99645.88;;;12.61;100.00
28935;BME280;16044;52.726;-2.108;2024-02-15T08:38:37;99648.59;;;12.61;100.00
28935;BME280;16044;52.726;-2.108;2024-02-15T08:41:08;99641.69;;;12.65;100.00
28935;BME280;16044;52.726;-2.108;2024-02-15T08:43:38;99641.69;;;12.65;100.00
28935;BME280;16044;52.726;-2.108;2024-02-15T08:46:11;99643.75;;;12.70;100.00
28935;BME280;16044;52.726;-2.108;2024-02-15T08:48:42;99640.41;;;12.75;100.00
28935;BME280;16044;52.726;-2.108;2024-02-15T08:51:14;99638.94;;;12.79;100.00
28935;BME280;16044;52.726;-2.108;2024-02-15T08:53:47;99639.56;;;12.81;100.00
28935;BME280;16044;52.726;-2.108;2024-02-15T08:56:18;99634.53;;;12.84;100.00
28935;BME280;16044;52.726;-2.108;2024-02-15T08:58:50;99634.13;;;12.87;100.00
28935;BME280;16044;52.726;-2.108;2024-02-15T09:01:23;99626.38;;;12.91;100.00
28935;BME280;16044;52.726;-2.108;2024-02-15T09:03:53;99626.53;;;12.96;100.00
28935;BME280;16044;52.726;-2.108;2024-02-15T09:06:24;99614.44;;;12.99;100.00
28935;BME280;16044;52.726;-2.108;2024-02-15T09:08:54;99624.03;;;13.01;100.00
28935;BME280;16044;52.726;-2.108;2024-02-15T09:11:28;99616.50;;;13.03;100.00
28935;BME280;16044;52.726;-2.108;2024-02-15T09:13:59;99612.28;;;13.07;100.00
28935;BME280;16044;52.726;-2.108;2024-02-15T09:16:32;99610.19;;;13.10;100.00
28935;BME280;16044;52.726;-2.108;2024-02-15T09:19:02;99613.09;;;13.15;100.00
28935;BME280;16044;52.726;-2.108;2024-02-15T09:21:33;99609.97;;;13.18;100.00
28935;BME280;16044;52.726;-2.108;2024-02-15T09:24:04;99602.22;;;13.21;100.00
28935;BME280;16044;52.726;-2.108;2024-02-15T09:26:35;99599.25;;;13.23;100.00
28935;BME280;16044;52.726;-2.108;2024-02-15T09:29:06;99604.06;;;13.27;100.00
28935;BME280;16044;52.726;-2.108;2024-02-15T09:31:39;99599.22;;;13.30;100.00
28935;BME280;16044;52.726;-2.108;2024-02-15T09:34:10;99595.47;;;13.31;100.00
28935;BME280;16044;52.726;-2.108;2024-02-15T09:36:41;99597.97;;;13.32;100.00
28935;BME280;16044;52.726;-2.108;2024-02-15T09:39:12;99607.38;;;13.36;100.00
28935;BME280;16044;52.726;-2.108;2024-02-15T09:41:45;99604.22;;;13.39;100.00
28935;BME280;16044;52.726;-2.108;2024-02-15T09:44:21;99613.03;;;13.41;100.00
28935;BME280;16044;52.726;-2.108;2024-02-15T09:47:02;99618.25;;;13.43;100.00
28935;BME280;16044;52.726;-2.108;2024-02-15T09:49:36;99612.38;;;13.46;100.00
28935;BME280;16044;52.726;-2.108;2024-02-15T09:52:08;99604.63;;;13.50;100.00
28935;BME280;16044;52.726;-2.108;2024-02-15T09:54:43;99604.16;;;13.53;100.00
28935;BME280;16044;52.726;-2.108;2024-02-15T09:57:14;99596.41;;;13.56;100.00
28935;BME280;16044;52.726;-2.108;2024-02-15T09:59:45;99592.84;;;13.56;100.00
28935;BME280;16044;52.726;-2.108;2024-02-15T10:02:19;99586.34;;;13.57;100.00
28935;BME280;16044;52.726;-2.108;2024-02-15T10:04:50;99581.34;;;13.54;100.00
28935;BME280;16044;52.726;-2.108;2024-02-15T10:07:23;99581.97;;;13.56;100.00
28935;BME280;16044;52.726;-2.108;2024-02-15T10:09:54;99576.91;;;13.59;100.00
28935;BME280;16044;52.726;-2.108;2024-02-15T10:12:37;99567.72;;;13.54;100.00
28935;BME280;16044;52.726;-2.108;2024-02-15T10:15:08;99564.34;;;13.58;100.00
28935;BME280;16044;52.726;-2.108;2024-02-15T10:17:41;99568.50;;;13.61;100.00
28935;BME280;16044;52.726;-2.108;2024-02-15T10:20:25;99571.63;;;13.64;100.00
28935;BME280;16044;52.726;-2.108;2024-02-15T10:23:09;99560.53;;;13.66;100.00
28935;BME280;16044;52.726;-2.108;2024-02-15T10:25:41;99565.72;;;13.74;100.00
28935;BME280;16044;52.726;-2.108;2024-02-15T10:28:12;99561.50;;;13.78;100.00
28935;BME280;16044;52.726;-2.108;2024-02-15T10:30:44;99559.59;;;13.79;100.00
28935;BME280;16044;52.726;-2.108;2024-02-15T10:33:26;99544.88;;;13.87;100.00
28935;BME280;16044;52.726;-2.108;2024-02-15T10:36:05;99537.31;;;13.89;100.00
28935;BME280;16044;52.726;-2.108;2024-02-15T10:38:37;99520.06;;;13.95;100.00
28935;BME280;16044;52.726;-2.108;2024-02-15T10:41:07;99517.53;;;14.00;100.00
28935;BME280;16044;52.726;-2.108;2024-02-15T10:43:39;99509.50;;;14.05;100.00
28935;BME280;16044;52.726;-2.108;2024-02-15T10:46:13;99518.31;;;14.07;100.00
28935;BME280;16044;52.726;-2.108;2024-02-15T10:48:47;99510.72;;;14.09;100.00
28935;BME280;16044;52.726;-2.108;2024-02-15T10:51:17;99513.47;;;14.09;100.00
28935;BME280;16044;52.726;-2.108;2024-02-15T10:53:57;99515.75;;;14.12;100.00
28935;BME280;16044;52.726;-2.108;2024-02-15T10:56:36;99510.91;;;14.14;100.00
28935;BME280;16044;52.726;-2.108;2024-02-15T10:59:16;99507.31;;;14.14;100.00
28935;BME280;16044;52.726;-2.108;2024-02-15T11:01:49;99513.16;;;14.17;100.00
28935;BME280;16044;52.726;-2.108;2024-02-15T11:04:25;99504.56;;;14.20;100.00
28935;BME280;16044;52.726;-2.108;2024-02-15T11:07:00;99506.38;;;14.27;100.00
28935;BME280;16044;52.726;-2.108;2024-02-15T11:09:33;99512.41;;;14.29;100.00
28935;BME280;16044;52.726;-2.108;2024-02-15T11:12:06;99510.69;;;14.34;100.00
28935;BME280;16044;52.726;-2.108;2024-02-15T11:14:38;99514.63;;;14.38;100.00
28935;BME280;16044;52.726;-2.108;2024-02-15T11:17:46;99506.22;;;14.40;100.00
28935;BME280;16044;52.726;-2.108;2024-02-15T11:20:48;99508.28;;;14.45;100.00
28935;BME280;16044;52.726;-2.108;2024-02-15T11:23:26;99509.72;;;14.47;100.00
28935;BME280;16044;52.726;-2.108;2024-02-15T11:26:04;99507.75;;;14.54;100.00
28935;BME280;16044;52.726;-2.108;2024-02-15T11:28:39;99505.22;;;14.59;100.00
28935;BME280;16044;52.726;-2.108;2024-02-15T11:31:10;99508.09;;;14.65;100.00
28935;BME280;16044;52.726;-2.108;2024-02-15T11:34:43;99507.09;;;14.77;100.00
28935;BME280;16044;52.726;-2.108;2024-02-15T11:40:26;99506.66;;;14.99;100.00
28935;BME280;16044;52.726;-2.108;2024-02-15T11:42:58;99513.19;;;15.10;100.00
28935;BME280;16044;52.726;-2.108;2024-02-15T11:45:31;99510.84;;;15.13;100.00
28935;BME280;16044;52.726;-2.108;2024-02-15T11:48:08;99501.50;;;15.21;100.00
28935;BME280;16044;52.726;-2.108;2024-02-15T11:50:40;99494.06;;;15.28;100.00
28935;BME280;16044;52.726;-2.108;2024-02-15T11:53:14;99505.56;;;15.30;100.00
28935;BME280;16044;52.726;-2.108;2024-02-15T11:55:45;99502.75;;;15.37;100.00
28935;BME280;16044;52.726;-2.108;2024-02-15T11:58:16;99501.00;;;15.43;100.00
28935;BME280;16044;52.726;-2.108;2024-02-15T12:00:59;99497.78;;;15.46;100.00
28935;BME280;16044;52.726;-2.108;2024-02-15T12:03:42;99484.28;;;15.51;100.00
28935;BME280;16044;52.726;-2.108;2024-02-15T12:06:33;99480.47;;;15.52;100.00
28935;BME280;16044;52.726;-2.108;2024-02-15T12:09:20;99462.56;;;15.56;100.00
28935;BME280;16044;52.726;-2.108;2024-02-15T12:12:03;99471.56;;;15.56;100.00
28935;BME280;16044;52.726;-2.108;2024-02-15T12:14:47;99460.19;;;15.59;100.00
28935;BME280;16044;52.726;-2.108;2024-02-15T12:17:32;99462.66;;;15.61;100.00
28935;BME280;16044;52.726;-2.108;2024-02-15T12:20:15;99454.59;;;15.66;100.00
28935;BME280;16044;52.726;-2.108;2024-02-15T12:22:52;99445.94;;;15.69;100.00
28935;BME280;16044;52.726;-2.108;2024-02-15T12:25:25;99448.19;;;15.72;100.00
28935;BME280;16044;52.726;-2.108;2024-02-15T12:27:59;99449.66;;;15.75;100.00
28935;BME280;16044;52.726;-2.108;2024-02-15T12:30:32;99446.44;;;15.78;100.00
28935;BME280;16044;52.726;-2.108;2024-02-15T12:33:12;99455.13;;;15.87;100.00
28935;BME280;16044;52.726;-2.108;2024-02-15T12:35:48;99440.53;;;15.93;100.00
28935;BME280;16044;52.726;-2.108;2024-02-15T12:38:19;99432.69;;;15.96;100.00
28935;BME280;16044;52.726;-2.108;2024-02-15T12:40:52;99427.94;;;16.04;100.00
28935;BME280;16044;52.726;-2.108;2024-02-15T12:43:23;99416.84;;;16.10;100.00
28935;BME280;16044;52.726;-2.108;2024-02-15T12:45:54;99415.91;;;16.16;100.00
28935;BME280;16044;52.726;-2.108;2024-02-15T12:48:25;99418.75;;;16.22;100.00
28935;BME280;16044;52.726;-2.108;2024-02-15T12:50:56;99408.66;;;16.22;100.00
28935;BME280;16044;52.726;-2.108;2024-02-15T12:53:30;99414.94;;;16.23;100.00
28935;BME280;16044;52.726;-2.108;2024-02-15T12:56:03;99407.81;;;16.22;100.00
28935;BME280;16044;52.726;-2.108;2024-02-15T12:58:36;99402.94;;;16.24;100.00
28935;BME280;16044;52.726;-2.108;2024-02-15T13:01:07;99401.50;;;16.21;100.00
28935;BME280;16044;52.726;-2.108;2024-02-15T13:03:39;99409.13;;;16.19;100.00
28935;BME280;16044;52.726;-2.108;2024-02-15T13:06:09;99412.91;;;16.18;100.00
28935;BME280;16044;52.726;-2.108;2024-02-15T13:08:40;99404.63;;;16.13;100.00
28935;BME280;16044;52.726;-2.108;2024-02-15T13:11:17;99410.91;;;16.13;100.00
28935;BME280;16044;52.726;-2.108;2024-02-15T13:13:47;99409.28;;;16.12;100.00